<?xml version="1.0" encoding="UTF-8" standalone="no" ?>
<gpx xmlns="http://www.topografix.com/GPX/1/1" xmlns:xsi="http://www.w3.org/2001/XMLSchema-instance" xsi:schemaLocation="http://www.topografix.com/GPX/1/1 http://www.topografix.com/GPX/1/1/gpx.xsd" version="1.1" creator="VisuGPX - https://www.visugpx.com">
  <metadata>
    <name>ARQUES LA SEYNE SUR MER 1497 KM</name>
    <desc><![CDATA[Rando de Arques dans le Pas de Calais jusque La Seyne sur Mer dans le Var, 1497 km]]></desc>
  </metadata>
  <trk>
    <name><![CDATA[15 - St Martin sur le pré la chaussée sur Marne 27.2 km]]></name>
    <extensions>
      <line xmlns="http://www.topografix.com/GPX/gpx_style/0/2">
        <color>00FF00</color>
        <width>4</width>
      </line>
    </extensions>
    <trkseg>
      <trkpt lat="48.98009" lon="4.35678">
        <ele>92</ele>
        <time>2021-11-02T15:26:40+01:00</time>
      </trkpt>
      <trkpt lat="48.97944" lon="4.35669">
        <ele>89</ele>
        <time>2021-11-02T15:26:45+01:00</time>
      </trkpt>
      <trkpt lat="48.97864" lon="4.35525">
        <ele>88</ele>
        <time>2021-11-02T15:26:50+01:00</time>
      </trkpt>
      <trkpt lat="48.97476" lon="4.35827">
        <ele>90</ele>
        <time>2021-11-02T15:26:55+01:00</time>
      </trkpt>
      <trkpt lat="48.96382" lon="4.36671">
        <ele>89</ele>
        <time>2021-11-02T15:27:00+01:00</time>
      </trkpt>
      <trkpt lat="48.96276" lon="4.36622">
        <ele>89</ele>
        <time>2021-11-02T15:27:05+01:00</time>
      </trkpt>
      <trkpt lat="48.96231" lon="4.3664">
        <ele>87</ele>
        <time>2021-11-02T15:27:10+01:00</time>
      </trkpt>
      <trkpt lat="48.96065" lon="4.36148">
        <ele>85</ele>
        <time>2021-11-02T15:27:15+01:00</time>
      </trkpt>
      <trkpt lat="48.95967" lon="4.35958">
        <ele>82</ele>
        <time>2021-11-02T15:27:20+01:00</time>
      </trkpt>
      <trkpt lat="48.9592" lon="4.35836">
        <ele>82</ele>
        <time>2021-11-02T15:27:25+01:00</time>
      </trkpt>
      <trkpt lat="48.95671" lon="4.35593">
        <ele>83</ele>
        <time>2021-11-02T15:27:30+01:00</time>
      </trkpt>
      <trkpt lat="48.95597" lon="4.35534">
        <ele>84</ele>
        <time>2021-11-02T15:27:35+01:00</time>
      </trkpt>
      <trkpt lat="48.95523" lon="4.35579">
        <ele>86</ele>
        <time>2021-11-02T15:27:40+01:00</time>
      </trkpt>
      <trkpt lat="48.95461" lon="4.35245">
        <ele>83</ele>
        <time>2021-11-02T15:27:45+01:00</time>
      </trkpt>
      <trkpt lat="48.95111" lon="4.35403">
        <ele>80</ele>
        <time>2021-11-02T15:27:50+01:00</time>
      </trkpt>
      <trkpt lat="48.95013" lon="4.35502">
        <ele>80</ele>
        <time>2021-11-02T15:27:55+01:00</time>
      </trkpt>
      <trkpt lat="48.94806" lon="4.3562">
        <ele>84</ele>
        <time>2021-11-02T15:28:00+01:00</time>
      </trkpt>
      <trkpt lat="48.94195" lon="4.35358">
        <ele>84</ele>
        <time>2021-11-02T15:28:05+01:00</time>
      </trkpt>
      <trkpt lat="48.93988" lon="4.35353">
        <ele>83</ele>
        <time>2021-11-02T15:28:10+01:00</time>
      </trkpt>
      <trkpt lat="48.93715" lon="4.35574">
        <ele>81</ele>
        <time>2021-11-02T15:28:15+01:00</time>
      </trkpt>
      <trkpt lat="48.93531" lon="4.35547">
        <ele>82</ele>
        <time>2021-11-02T15:28:20+01:00</time>
      </trkpt>
      <trkpt lat="48.9349" lon="4.35611">
        <ele>81</ele>
        <time>2021-11-02T15:28:25+01:00</time>
      </trkpt>
      <trkpt lat="48.9343" lon="4.35561">
        <ele>80</ele>
        <time>2021-11-02T15:28:30+01:00</time>
      </trkpt>
      <trkpt lat="48.9319" lon="4.35728">
        <ele>81</ele>
        <time>2021-11-02T15:28:35+01:00</time>
      </trkpt>
      <trkpt lat="48.93054" lon="4.35917">
        <ele>81</ele>
        <time>2021-11-02T15:28:40+01:00</time>
      </trkpt>
      <trkpt lat="48.92683" lon="4.36251">
        <ele>81</ele>
        <time>2021-11-02T15:28:45+01:00</time>
      </trkpt>
      <trkpt lat="48.92309" lon="4.36856">
        <ele>80</ele>
        <time>2021-11-02T15:28:50+01:00</time>
      </trkpt>
      <trkpt lat="48.9206" lon="4.37186">
        <ele>80</ele>
        <time>2021-11-02T15:28:55+01:00</time>
      </trkpt>
      <trkpt lat="48.92016" lon="4.37425">
        <ele>80</ele>
        <time>2021-11-02T15:29:00+01:00</time>
      </trkpt>
      <trkpt lat="48.92203" lon="4.37714">
        <ele>79</ele>
        <time>2021-11-02T15:29:05+01:00</time>
      </trkpt>
      <trkpt lat="48.91948" lon="4.3817">
        <ele>84</ele>
        <time>2021-11-02T15:29:10+01:00</time>
      </trkpt>
      <trkpt lat="48.91885" lon="4.38061">
        <ele>81</ele>
        <time>2021-11-02T15:29:15+01:00</time>
      </trkpt>
      <trkpt lat="48.91805" lon="4.38197">
        <ele>84</ele>
        <time>2021-11-02T15:29:20+01:00</time>
      </trkpt>
      <trkpt lat="48.9177" lon="4.38147">
        <ele>83</ele>
        <time>2021-11-02T15:29:25+01:00</time>
      </trkpt>
      <trkpt lat="48.91426" lon="4.38445">
        <ele>82</ele>
        <time>2021-11-02T15:29:30+01:00</time>
      </trkpt>
      <trkpt lat="48.91491" lon="4.38562">
        <ele>81</ele>
        <time>2021-11-02T15:29:35+01:00</time>
      </trkpt>
      <trkpt lat="48.91429" lon="4.38761">
        <ele>82</ele>
        <time>2021-11-02T15:29:40+01:00</time>
      </trkpt>
      <trkpt lat="48.9109" lon="4.38995">
        <ele>81</ele>
        <time>2021-11-02T15:29:45+01:00</time>
      </trkpt>
      <trkpt lat="48.90835" lon="4.39357">
        <ele>84</ele>
        <time>2021-11-02T15:29:50+01:00</time>
      </trkpt>
      <trkpt lat="48.90883" lon="4.39451">
        <ele>82</ele>
        <time>2021-11-02T15:29:55+01:00</time>
      </trkpt>
      <trkpt lat="48.90634" lon="4.39867">
        <ele>83</ele>
        <time>2021-11-02T15:30:00+01:00</time>
      </trkpt>
      <trkpt lat="48.9077" lon="4.40164">
        <ele>82</ele>
        <time>2021-11-02T15:30:05+01:00</time>
      </trkpt>
      <trkpt lat="48.90758" lon="4.4071">
        <ele>83</ele>
        <time>2021-11-02T15:30:10+01:00</time>
      </trkpt>
      <trkpt lat="48.90423" lon="4.40977">
        <ele>81</ele>
        <time>2021-11-02T15:30:15+01:00</time>
      </trkpt>
      <trkpt lat="48.90479" lon="4.41117">
        <ele>83</ele>
        <time>2021-11-02T15:30:20+01:00</time>
      </trkpt>
      <trkpt lat="48.90126" lon="4.41442">
        <ele>82</ele>
        <time>2021-11-02T15:30:25+01:00</time>
      </trkpt>
      <trkpt lat="48.89978" lon="4.40999">
        <ele>83</ele>
        <time>2021-11-02T15:30:30+01:00</time>
      </trkpt>
      <trkpt lat="48.89687" lon="4.41252">
        <ele>85</ele>
        <time>2021-11-02T15:30:35+01:00</time>
      </trkpt>
      <trkpt lat="48.89494" lon="4.41351">
        <ele>83</ele>
        <time>2021-11-02T15:30:40+01:00</time>
      </trkpt>
      <trkpt lat="48.89488" lon="4.4141">
        <ele>83</ele>
        <time>2021-11-02T15:30:45+01:00</time>
      </trkpt>
      <trkpt lat="48.8934" lon="4.41478">
        <ele>86</ele>
        <time>2021-11-02T15:30:50+01:00</time>
      </trkpt>
      <trkpt lat="48.89379" lon="4.416">
        <ele>84</ele>
        <time>2021-11-02T15:30:55+01:00</time>
      </trkpt>
      <trkpt lat="48.89275" lon="4.41658">
        <ele>87</ele>
        <time>2021-11-02T15:31:00+01:00</time>
      </trkpt>
      <trkpt lat="48.89304" lon="4.41767">
        <ele>83</ele>
        <time>2021-11-02T15:31:05+01:00</time>
      </trkpt>
      <trkpt lat="48.89195" lon="4.41825">
        <ele>83</ele>
        <time>2021-11-02T15:31:10+01:00</time>
      </trkpt>
      <trkpt lat="48.89171" lon="4.41965">
        <ele>82</ele>
        <time>2021-11-02T15:31:15+01:00</time>
      </trkpt>
      <trkpt lat="48.8926" lon="4.42064">
        <ele>83</ele>
        <time>2021-11-02T15:31:20+01:00</time>
      </trkpt>
      <trkpt lat="48.8931" lon="4.42272">
        <ele>83</ele>
        <time>2021-11-02T15:31:25+01:00</time>
      </trkpt>
      <trkpt lat="48.89388" lon="4.42412">
        <ele>82</ele>
        <time>2021-11-02T15:31:30+01:00</time>
      </trkpt>
      <trkpt lat="48.88842" lon="4.42796">
        <ele>84</ele>
        <time>2021-11-02T15:31:35+01:00</time>
      </trkpt>
      <trkpt lat="48.88785" lon="4.42999">
        <ele>84</ele>
        <time>2021-11-02T15:31:40+01:00</time>
      </trkpt>
      <trkpt lat="48.88919" lon="4.43265">
        <ele>85</ele>
        <time>2021-11-02T15:31:45+01:00</time>
      </trkpt>
      <trkpt lat="48.88322" lon="4.43992">
        <ele>87</ele>
        <time>2021-11-02T15:31:50+01:00</time>
      </trkpt>
      <trkpt lat="48.88186" lon="4.44109">
        <ele>86</ele>
        <time>2021-11-02T15:31:55+01:00</time>
      </trkpt>
      <trkpt lat="48.88055" lon="4.44154">
        <ele>85</ele>
        <time>2021-11-02T15:32:00+01:00</time>
      </trkpt>
      <trkpt lat="48.87773" lon="4.44578">
        <ele>85</ele>
        <time>2021-11-02T15:32:05+01:00</time>
      </trkpt>
      <trkpt lat="48.87556" lon="4.44294">
        <ele>83</ele>
        <time>2021-11-02T15:32:10+01:00</time>
      </trkpt>
      <trkpt lat="48.87369" lon="4.44538">
        <ele>84</ele>
        <time>2021-11-02T15:32:15+01:00</time>
      </trkpt>
      <trkpt lat="48.87551" lon="4.44863">
        <ele>85</ele>
        <time>2021-11-02T15:32:20+01:00</time>
      </trkpt>
      <trkpt lat="48.87292" lon="4.45169">
        <ele>87</ele>
        <time>2021-11-02T15:32:25+01:00</time>
      </trkpt>
      <trkpt lat="48.87224" lon="4.45273">
        <ele>87</ele>
        <time>2021-11-02T15:32:30+01:00</time>
      </trkpt>
      <trkpt lat="48.87168" lon="4.45454">
        <ele>87</ele>
        <time>2021-11-02T15:32:35+01:00</time>
      </trkpt>
      <trkpt lat="48.86987" lon="4.45711">
        <ele>86</ele>
        <time>2021-11-02T15:32:40+01:00</time>
      </trkpt>
      <trkpt lat="48.86877" lon="4.45973">
        <ele>85</ele>
        <time>2021-11-02T15:32:45+01:00</time>
      </trkpt>
      <trkpt lat="48.86381" lon="4.4725">
        <ele>86</ele>
        <time>2021-11-02T15:32:50+01:00</time>
      </trkpt>
      <trkpt lat="48.8606" lon="4.47679">
        <ele>86</ele>
        <time>2021-11-02T15:32:55+01:00</time>
      </trkpt>
      <trkpt lat="48.85656" lon="4.4804">
        <ele>88</ele>
        <time>2021-11-02T15:33:00+01:00</time>
      </trkpt>
      <trkpt lat="48.85594" lon="4.47909">
        <ele>86</ele>
        <time>2021-11-02T15:33:05+01:00</time>
      </trkpt>
      <trkpt lat="48.85505" lon="4.47927">
        <ele>87</ele>
        <time>2021-11-02T15:33:10+01:00</time>
      </trkpt>
      <trkpt lat="48.85217" lon="4.47602">
        <ele>88</ele>
        <time>2021-11-02T15:33:15+01:00</time>
      </trkpt>
      <trkpt lat="48.84997" lon="4.47846">
        <ele>85</ele>
        <time>2021-11-02T15:33:20+01:00</time>
      </trkpt>
      <trkpt lat="48.84682" lon="4.47661">
        <ele>88</ele>
        <time>2021-11-02T15:33:25+01:00</time>
      </trkpt>
      <trkpt lat="48.84471" lon="4.48067">
        <ele>88</ele>
        <time>2021-11-02T15:33:30+01:00</time>
      </trkpt>
      <trkpt lat="48.84439" lon="4.48266">
        <ele>89</ele>
        <time>2021-11-02T15:33:35+01:00</time>
      </trkpt>
      <trkpt lat="48.84457" lon="4.48496">
        <ele>87</ele>
        <time>2021-11-02T15:33:40+01:00</time>
      </trkpt>
      <trkpt lat="48.84388" lon="4.48649">
        <ele>85</ele>
        <time>2021-11-02T15:33:45+01:00</time>
      </trkpt>
      <trkpt lat="48.84305" lon="4.49177">
        <ele>88</ele>
        <time>2021-11-02T15:33:50+01:00</time>
      </trkpt>
      <trkpt lat="48.83785" lon="4.50035">
        <ele>87</ele>
        <time>2021-11-02T15:33:55+01:00</time>
      </trkpt>
      <trkpt lat="48.83467" lon="4.50369">
        <ele>87</ele>
        <time>2021-11-02T15:34:00+01:00</time>
      </trkpt>
      <trkpt lat="48.83328" lon="4.50477">
        <ele>89</ele>
        <time>2021-11-02T15:34:05+01:00</time>
      </trkpt>
      <trkpt lat="48.83429" lon="4.50694">
        <ele>87</ele>
        <time>2021-11-02T15:34:10+01:00</time>
      </trkpt>
      <trkpt lat="48.83512" lon="4.51158">
        <ele>90</ele>
        <time>2021-11-02T15:34:15+01:00</time>
      </trkpt>
      <trkpt lat="48.83441" lon="4.51474">
        <ele>93</ele>
        <time>2021-11-02T15:34:20+01:00</time>
      </trkpt>
      <trkpt lat="48.83456" lon="4.51768">
        <ele>95</ele>
        <time>2021-11-02T15:34:25+01:00</time>
      </trkpt>
      <trkpt lat="48.83429" lon="4.51872">
        <ele>96</ele>
        <time>2021-11-02T15:34:30+01:00</time>
      </trkpt>
      <trkpt lat="48.83221" lon="4.5184">
        <ele>91</ele>
        <time>2021-11-02T15:34:35+01:00</time>
      </trkpt>
    </trkseg>
  </trk>
</gpx>